sensor_id;sensor_type;location;lat;lon;timestamp;P1;durP1;ratioP1;P2;durP2;ratioP2
48596;SDS011;34382;43.160;24.148;2023-05-21T00:01:30;8.75;;;4.97;;
48596;SDS011;34382;43.160;24.148;2023-05-21T00:03:02;11.13;;;4.90;;
48596;SDS011;34382;43.160;24.148;2023-05-21T00:04:35;9.88;;;4.78;;
48596;SDS011;34382;43.160;24.148;2023-05-21T00:06:07;9.05;;;4.82;;
48596;SDS011;34382;43.160;24.148;2023-05-21T00:07:39;9.75;;;4.45;;
48596;SDS011;34382;43.160;24.148;2023-05-21T00:09:12;9.20;;;4.78;;
48596;SDS011;34382;43.160;24.148;2023-05-21T00:10:44;8.70;;;4.93;;
48596;SDS011;34382;43.160;24.148;2023-05-21T00:12:16;10.60;;;4.82;;
48596;SDS011;34382;43.160;24.148;2023-05-21T00:13:48;10.18;;;4.88;;
48596;SDS011;34382;43.160;24.148;2023-05-21T00:15:21;10.55;;;5.07;;
48596;SDS011;34382;43.160;24.148;2023-05-21T00:16:53;10.02;;;5.13;;
48596;SDS011;34382;43.160;24.148;2023-05-21T00:18:25;10.30;;;5.00;;
48596;SDS011;34382;43.160;24.148;2023-05-21T00:19:57;11.60;;;5.47;;
48596;SDS011;34382;43.160;24.148;2023-05-21T00:21:30;10.10;;;4.90;;
48596;SDS011;34382;43.160;24.148;2023-05-21T00:23:02;10.45;;;5.00;;
48596;SDS011;34382;43.160;24.148;2023-05-21T00:24:35;10.32;;;4.93;;
48596;SDS011;34382;43.160;24.148;2023-05-21T00:26:08;9.23;;;5.03;;
48596;SDS011;34382;43.160;24.148;2023-05-21T00:29:12;9.15;;;4.68;;
48596;SDS011;34382;43.160;24.148;2023-05-21T00:30:44;10.33;;;5.20;;
48596;SDS011;34382;43.160;24.148;2023-05-21T00:33:50;8.48;;;4.63;;
48596;SDS011;34382;43.160;24.148;2023-05-21T00:35:22;9.48;;;4.78;;
48596;SDS011;34382;43.160;24.148;2023-05-21T00:36:54;8.82;;;5.00;;
48596;SDS011;34382;43.160;24.148;2023-05-21T00:38:26;9.85;;;5.38;;
48596;SDS011;34382;43.160;24.148;2023-05-21T00:40:01;9.93;;;4.70;;
48596;SDS011;34382;43.160;24.148;2023-05-21T00:41:36;8.77;;;4.95;;
48596;SDS011;34382;43.160;24.148;2023-05-21T00:43:11;10.80;;;5.15;;
48596;SDS011;34382;43.160;24.148;2023-05-21T00:44:45;9.32;;;4.65;;
48596;SDS011;34382;43.160;24.148;2023-05-21T00:46:19;8.43;;;4.50;;
48596;SDS011;34382;43.160;24.148;2023-05-21T00:47:52;12.75;;;4.50;;
48596;SDS011;34382;43.160;24.148;2023-05-21T00:49:27;9.27;;;4.43;;
48596;SDS011;34382;43.160;24.148;2023-05-21T00:51:00;10.37;;;4.90;;
48596;SDS011;34382;43.160;24.148;2023-05-21T00:52:32;9.30;;;4.85;;
48596;SDS011;34382;43.160;24.148;2023-05-21T00:54:12;9.77;;;4.68;;
48596;SDS011;34382;43.160;24.148;2023-05-21T00:55:45;8.82;;;4.10;;
48596;SDS011;34382;43.160;24.148;2023-05-21T00:57:18;9.98;;;5.28;;
48596;SDS011;34382;43.160;24.148;2023-05-21T00:58:53;9.90;;;4.60;;
48596;SDS011;34382;43.160;24.148;2023-05-21T01:00:27;10.00;;;5.18;;
48596;SDS011;34382;43.160;24.148;2023-05-21T01:02:00;10.00;;;4.80;;
48596;SDS011;34382;43.160;24.148;2023-05-21T01:03:36;9.73;;;4.85;;
48596;SDS011;34382;43.160;24.148;2023-05-21T01:05:09;9.27;;;4.50;;
48596;SDS011;34382;43.160;24.148;2023-05-21T01:06:41;11.07;;;4.63;;
48596;SDS011;34382;43.160;24.148;2023-05-21T01:08:13;11.25;;;4.55;;
48596;SDS011;34382;43.160;24.148;2023-05-21T01:09:46;10.05;;;4.55;;
48596;SDS011;34382;43.160;24.148;2023-05-21T01:11:18;8.45;;;4.70;;
48596;SDS011;34382;43.160;24.148;2023-05-21T01:12:52;10.32;;;4.80;;
48596;SDS011;34382;43.160;24.148;2023-05-21T01:14:26;10.63;;;4.75;;
48596;SDS011;34382;43.160;24.148;2023-05-21T01:15:58;9.90;;;4.50;;
48596;SDS011;34382;43.160;24.148;2023-05-21T01:17:30;11.15;;;4.97;;
48596;SDS011;34382;43.160;24.148;2023-05-21T01:19:04;9.98;;;5.25;;
48596;SDS011;34382;43.160;24.148;2023-05-21T01:20:38;10.70;;;4.88;;
48596;SDS011;34382;43.160;24.148;2023-05-21T01:22:11;12.23;;;4.95;;
48596;SDS011;34382;43.160;24.148;2023-05-21T01:23:44;10.05;;;4.53;;
48596;SDS011;34382;43.160;24.148;2023-05-21T01:25:17;12.65;;;5.07;;
48596;SDS011;34382;43.160;24.148;2023-05-21T01:26:49;9.82;;;5.10;;
48596;SDS011;34382;43.160;24.148;2023-05-21T01:28:21;10.38;;;4.95;;
48596;SDS011;34382;43.160;24.148;2023-05-21T01:29:54;9.75;;;5.30;;
48596;SDS011;34382;43.160;24.148;2023-05-21T01:31:29;12.13;;;4.77;;
48596;SDS011;34382;43.160;24.148;2023-05-21T01:33:28;8.90;;;4.82;;
48596;SDS011;34382;43.160;24.148;2023-05-21T01:41:10;10.82;;;4.43;;
48596;SDS011;34382;43.160;24.148;2023-05-21T01:42:43;10.27;;;5.30;;
48596;SDS011;34382;43.160;24.148;2023-05-21T01:44:16;10.80;;;5.07;;
48596;SDS011;34382;43.160;24.148;2023-05-21T01:45:50;11.98;;;5.25;;
48596;SDS011;34382;43.160;24.148;2023-05-21T01:47:25;9.27;;;5.18;;
48596;SDS011;34382;43.160;24.148;2023-05-21T01:48:58;10.80;;;4.82;;
48596;SDS011;34382;43.160;24.148;2023-05-21T01:50:30;9.90;;;5.10;;
48596;SDS011;34382;43.160;24.148;2023-05-21T01:52:03;9.83;;;4.77;;
48596;SDS011;34382;43.160;24.148;2023-05-21T01:53:35;10.70;;;4.90;;
48596;SDS011;34382;43.160;24.148;2023-05-21T01:55:11;17.27;;;5.22;;
48596;SDS011;34382;43.160;24.148;2023-05-21T01:56:44;9.90;;;4.78;;
48596;SDS011;34382;43.160;24.148;2023-05-21T01:58:16;12.15;;;5.05;;
48596;SDS011;34382;43.160;24.148;2023-05-21T01:59:49;11.38;;;4.72;;
48596;SDS011;34382;43.160;24.148;2023-05-21T02:01:24;11.55;;;5.10;;
48596;SDS011;34382;43.160;24.148;2023-05-21T02:02:57;10.40;;;5.13;;
48596;SDS011;34382;43.160;24.148;2023-05-21T02:04:30;8.93;;;4.57;;
48596;SDS011;34382;43.160;24.148;2023-05-21T02:06:02;9.10;;;5.00;;
48596;SDS011;34382;43.160;24.148;2023-05-21T02:07:34;9.27;;;5.18;;
48596;SDS011;34382;43.160;24.148;2023-05-21T02:09:08;10.80;;;4.70;;
48596;SDS011;34382;43.160;24.148;2023-05-21T02:10:40;9.38;;;5.10;;
48596;SDS011;34382;43.160;24.148;2023-05-21T02:12:12;9.67;;;4.63;;
48596;SDS011;34382;43.160;24.148;2023-05-21T02:13:44;9.82;;;4.88;;
48596;SDS011;34382;43.160;24.148;2023-05-21T02:15:17;9.95;;;4.57;;
48596;SDS011;34382;43.160;24.148;2023-05-21T02:16:49;10.55;;;4.70;;
48596;SDS011;34382;43.160;24.148;2023-05-21T02:18:23;10.18;;;4.63;;
48596;SDS011;34382;43.160;24.148;2023-05-21T02:19:56;13.00;;;5.78;;
48596;SDS011;34382;43.160;24.148;2023-05-21T02:21:29;11.90;;;5.20;;
48596;SDS011;34382;43.160;24.148;2023-05-21T02:23:01;9.90;;;4.70;;
48596;SDS011;34382;43.160;24.148;2023-05-21T02:24:33;14.57;;;6.43;;
48596;SDS011;34382;43.160;24.148;2023-05-21T02:26:06;11.88;;;5.20;;
48596;SDS011;34382;43.160;24.148;2023-05-21T02:27:38;11.55;;;4.85;;
48596;SDS011;34382;43.160;24.148;2023-05-21T02:29:11;11.98;;;5.20;;
48596;SDS011;34382;43.160;24.148;2023-05-21T02:32:25;9.68;;;4.60;;
48596;SDS011;34382;43.160;24.148;2023-05-21T02:33:57;9.23;;;4.45;;
48596;SDS011;34382;43.160;24.148;2023-05-21T02:35:29;10.32;;;4.43;;
48596;SDS011;34382;43.160;24.148;2023-05-21T02:37:02;10.18;;;4.43;;
48596;SDS011;34382;43.160;24.148;2023-05-21T02:38:38;9.55;;;4.10;;
48596;SDS011;34382;43.160;24.148;2023-05-21T02:40:14;10.23;;;4.18;;
48596;SDS011;34382;43.160;24.148;2023-05-21T02:41:46;11.48;;;4.55;;
48596;SDS011;34382;43.160;24.148;2023-05-21T02:43:18;9.43;;;4.10;;
48596;SDS011;34382;43.160;24.148;2023-05-21T02:44:51;8.88;;;4.25;;
48596;SDS011;34382;43.160;24.148;2023-05-21T02:46:23;12.27;;;4.40;;
48596;SDS011;34382;43.160;24.148;2023-05-21T02:47:55;8.25;;;4.57;;
48596;SDS011;34382;43.160;24.148;2023-05-21T02:49:28;12.52;;;5.32;;
48596;SDS011;34382;43.160;24.148;2023-05-21T02:51:00;12.13;;;4.80;;
48596;SDS011;34382;43.160;24.148;2023-05-21T02:52:32;10.95;;;4.90;;
48596;SDS011;34382;43.160;24.148;2023-05-21T02:54:04;13.90;;;5.05;;
48596;SDS011;34382;43.160;24.148;2023-05-21T02:55:37;9.93;;;4.47;;
48596;SDS011;34382;43.160;24.148;2023-05-21T02:57:09;12.02;;;4.75;;
48596;SDS011;34382;43.160;24.148;2023-05-21T02:58:42;14.18;;;5.00;;
48596;SDS011;34382;43.160;24.148;2023-05-21T03:00:14;14.23;;;5.32;;
48596;SDS011;34382;43.160;24.148;2023-05-21T03:01:59;10.25;;;4.88;;
48596;SDS011;34382;43.160;24.148;2023-05-21T03:03:32;9.43;;;4.77;;
48596;SDS011;34382;43.160;24.148;2023-05-21T03:05:07;9.95;;;4.53;;
48596;SDS011;34382;43.160;24.148;2023-05-21T03:06:39;12.20;;;4.97;;
48596;SDS011;34382;43.160;24.148;2023-05-21T03:08:11;9.38;;;5.07;;
48596;SDS011;34382;43.160;24.148;2023-05-21T03:09:44;10.77;;;5.32;;
48596;SDS011;34382;43.160;24.148;2023-05-21T03:11:17;10.20;;;4.60;;
48596;SDS011;34382;43.160;24.148;2023-05-21T03:12:50;11.30;;;5.10;;
48596;SDS011;34382;43.160;24.148;2023-05-21T03:14:24;8.70;;;4.55;;
48596;SDS011;34382;43.160;24.148;2023-05-21T03:15:56;9.95;;;5.50;;
48596;SDS011;34382;43.160;24.148;2023-05-21T03:17:28;11.32;;;5.18;;
48596;SDS011;34382;43.160;24.148;2023-05-21T03:19:00;10.85;;;5.00;;
48596;SDS011;34382;43.160;24.148;2023-05-21T03:20:33;9.93;;;4.70;;
48596;SDS011;34382;43.160;24.148;2023-05-21T03:22:05;10.05;;;5.32;;
48596;SDS011;34382;43.160;24.148;2023-05-21T03:23:38;13.03;;;5.20;;
48596;SDS011;34382;43.160;24.148;2023-05-21T03:25:12;10.55;;;5.25;;
48596;SDS011;34382;43.160;24.148;2023-05-21T03:26:44;10.07;;;4.80;;
48596;SDS011;34382;43.160;24.148;2023-05-21T03:28:18;10.95;;;5.05;;
48596;SDS011;34382;43.160;24.148;2023-05-21T03:29:51;11.45;;;5.00;;
48596;SDS011;34382;43.160;24.148;2023-05-21T03:31:25;8.85;;;4.85;;
48596;SDS011;34382;43.160;24.148;2023-05-21T03:32:58;11.38;;;5.38;;
48596;SDS011;34382;43.160;24.148;2023-05-21T03:34:30;10.00;;;5.00;;
48596;SDS011;34382;43.160;24.148;2023-05-21T03:37:37;12.48;;;6.07;;
48596;SDS011;34382;43.160;24.148;2023-05-21T03:39:10;9.70;;;5.35;;
48596;SDS011;34382;43.160;24.148;2023-05-21T03:40:42;10.50;;;5.55;;
48596;SDS011;34382;43.160;24.148;2023-05-21T03:42:14;9.18;;;5.15;;
48596;SDS011;34382;43.160;24.148;2023-05-21T03:43:46;10.48;;;5.60;;
48596;SDS011;34382;43.160;24.148;2023-05-21T03:45:18;9.38;;;5.00;;
48596;SDS011;34382;43.160;24.148;2023-05-21T03:46:51;9.38;;;4.80;;
48596;SDS011;34382;43.160;24.148;2023-05-21T03:48:23;8.57;;;5.00;;
48596;SDS011;34382;43.160;24.148;2023-05-21T03:49:55;12.43;;;5.25;;
48596;SDS011;34382;43.160;24.148;2023-05-21T03:51:27;11.07;;;4.82;;
48596;SDS011;34382;43.160;24.148;2023-05-21T03:54:33;9.85;;;5.25;;
48596;SDS011;34382;43.160;24.148;2023-05-21T03:56:05;9.15;;;4.95;;
48596;SDS011;34382;43.160;24.148;2023-05-21T03:57:37;10.50;;;5.43;;
48596;SDS011;34382;43.160;24.148;2023-05-21T03:59:10;12.13;;;5.18;;
48596;SDS011;34382;43.160;24.148;2023-05-21T04:00:42;13.65;;;5.53;;
48596;SDS011;34382;43.160;24.148;2023-05-21T04:02:14;11.13;;;5.28;;
48596;SDS011;34382;43.160;24.148;2023-05-21T04:03:46;11.30;;;5.22;;
48596;SDS011;34382;43.160;24.148;2023-05-21T04:05:19;11.83;;;5.07;;
48596;SDS011;34382;43.160;24.148;2023-05-21T04:06:51;9.77;;;5.28;;
48596;SDS011;34382;43.160;24.148;2023-05-21T04:08:24;13.43;;;5.60;;
48596;SDS011;34382;43.160;24.148;2023-05-21T04:09:57;11.60;;;5.28;;
48596;SDS011;34382;43.160;24.148;2023-05-21T04:11:29;10.43;;;5.57;;
48596;SDS011;34382;43.160;24.148;2023-05-21T04:13:02;12.05;;;5.80;;
48596;SDS011;34382;43.160;24.148;2023-05-21T04:14:34;10.25;;;5.78;;
48596;SDS011;34382;43.160;24.148;2023-05-21T04:16:08;11.15;;;5.50;;
48596;SDS011;34382;43.160;24.148;2023-05-21T04:17:40;12.75;;;5.60;;
48596;SDS011;34382;43.160;24.148;2023-05-21T04:19:12;10.85;;;5.70;;
48596;SDS011;34382;43.160;24.148;2023-05-21T04:20:45;10.95;;;5.13;;
48596;SDS011;34382;43.160;24.148;2023-05-21T04:22:17;12.50;;;5.68;;
48596;SDS011;34382;43.160;24.148;2023-05-21T04:23:49;11.13;;;5.30;;
48596;SDS011;34382;43.160;24.148;2023-05-21T04:25:21;12.43;;;5.03;;
48596;SDS011;34382;43.160;24.148;2023-05-21T04:26:53;11.53;;;5.20;;
48596;SDS011;34382;43.160;24.148;2023-05-21T04:28:26;10.43;;;5.32;;
48596;SDS011;34382;43.160;24.148;2023-05-21T04:29:59;12.50;;;5.68;;
48596;SDS011;34382;43.160;24.148;2023-05-21T04:31:31;12.10;;;5.38;;
48596;SDS011;34382;43.160;24.148;2023-05-21T04:33:03;12.23;;;5.55;;
48596;SDS011;34382;43.160;24.148;2023-05-21T04:34:36;11.27;;;5.80;;
48596;SDS011;34382;43.160;24.148;2023-05-21T04:36:08;13.68;;;5.53;;
48596;SDS011;34382;43.160;24.148;2023-05-21T04:37:41;14.35;;;6.28;;
48596;SDS011;34382;43.160;24.148;2023-05-21T04:39:16;12.68;;;5.60;;
48596;SDS011;34382;43.160;24.148;2023-05-21T04:40:49;10.95;;;6.20;;
48596;SDS011;34382;43.160;24.148;2023-05-21T04:42:21;13.50;;;6.13;;
48596;SDS011;34382;43.160;24.148;2023-05-21T04:43:54;13.50;;;5.72;;
48596;SDS011;34382;43.160;24.148;2023-05-21T04:45:27;12.70;;;6.10;;
48596;SDS011;34382;43.160;24.148;2023-05-21T04:47:00;11.00;;;6.20;;
48596;SDS011;34382;43.160;24.148;2023-05-21T04:48:32;12.50;;;6.07;;
48596;SDS011;34382;43.160;24.148;2023-05-21T04:51:36;12.82;;;6.25;;
48596;SDS011;34382;43.160;24.148;2023-05-21T04:53:09;11.55;;;6.25;;
48596;SDS011;34382;43.160;24.148;2023-05-21T04:54:42;10.48;;;5.85;;
48596;SDS011;34382;43.160;24.148;2023-05-21T04:56:18;14.05;;;6.20;;
48596;SDS011;34382;43.160;24.148;2023-05-21T04:57:52;13.10;;;6.47;;
48596;SDS011;34382;43.160;24.148;2023-05-21T04:59:24;11.30;;;5.50;;
48596;SDS011;34382;43.160;24.148;2023-05-21T05:00:56;14.20;;;6.32;;
48596;SDS011;34382;43.160;24.148;2023-05-21T05:02:29;12.35;;;6.00;;
48596;SDS011;34382;43.160;24.148;2023-05-21T05:04:01;13.95;;;5.57;;
48596;SDS011;34382;43.160;24.148;2023-05-21T05:05:33;11.20;;;5.85;;
48596;SDS011;34382;43.160;24.148;2023-05-21T05:07:06;12.57;;;6.27;;
48596;SDS011;34382;43.160;24.148;2023-05-21T05:08:38;12.27;;;5.93;;
48596;SDS011;34382;43.160;24.148;2023-05-21T05:10:10;13.88;;;6.22;;
48596;SDS011;34382;43.160;24.148;2023-05-21T05:11:42;10.88;;;5.85;;
48596;SDS011;34382;43.160;24.148;2023-05-21T05:13:15;10.38;;;5.70;;
48596;SDS011;34382;43.160;24.148;2023-05-21T05:14:47;9.65;;;5.35;;
48596;SDS011;34382;43.160;24.148;2023-05-21T05:16:19;11.10;;;5.53;;
48596;SDS011;34382;43.160;24.148;2023-05-21T05:17:56;10.82;;;5.85;;
48596;SDS011;34382;43.160;24.148;2023-05-21T05:19:28;11.00;;;5.30;;
48596;SDS011;34382;43.160;24.148;2023-05-21T05:21:01;10.50;;;5.72;;
48596;SDS011;34382;43.160;24.148;2023-05-21T05:22:33;10.82;;;5.43;;
48596;SDS011;34382;43.160;24.148;2023-05-21T05:24:05;10.93;;;5.57;;
48596;SDS011;34382;43.160;24.148;2023-05-21T05:25:37;10.70;;;5.60;;
48596;SDS011;34382;43.160;24.148;2023-05-21T05:27:10;12.10;;;5.18;;
48596;SDS011;34382;43.160;24.148;2023-05-21T05:28:42;10.15;;;5.13;;
48596;SDS011;34382;43.160;24.148;2023-05-21T05:30:14;11.27;;;5.70;;
48596;SDS011;34382;43.160;24.148;2023-05-21T05:31:47;12.52;;;5.68;;
48596;SDS011;34382;43.160;24.148;2023-05-21T05:33:19;12.00;;;5.53;;
48596;SDS011;34382;43.160;24.148;2023-05-21T05:34:51;11.15;;;5.40;;
48596;SDS011;34382;43.160;24.148;2023-05-21T05:36:24;11.82;;;5.38;;
48596;SDS011;34382;43.160;24.148;2023-05-21T05:37:57;11.88;;;5.85;;
48596;SDS011;34382;43.160;24.148;2023-05-21T05:39:29;8.70;;;4.90;;
48596;SDS011;34382;43.160;24.148;2023-05-21T05:41:01;12.20;;;5.30;;
48596;SDS011;34382;43.160;24.148;2023-05-21T05:42:33;9.90;;;4.88;;
48596;SDS011;34382;43.160;24.148;2023-05-21T05:44:06;9.27;;;5.38;;
48596;SDS011;34382;43.160;24.148;2023-05-21T05:45:41;9.73;;;5.10;;
48596;SDS011;34382;43.160;24.148;2023-05-21T05:47:13;10.27;;;5.88;;
48596;SDS011;34382;43.160;24.148;2023-05-21T05:50:25;8.57;;;4.82;;
48596;SDS011;34382;43.160;24.148;2023-05-21T05:51:58;9.68;;;4.78;;
48596;SDS011;34382;43.160;24.148;2023-05-21T05:53:31;11.18;;;4.72;;
48596;SDS011;34382;43.160;24.148;2023-05-21T05:55:04;11.88;;;4.70;;
48596;SDS011;34382;43.160;24.148;2023-05-21T05:56:39;12.05;;;5.40;;
48596;SDS011;34382;43.160;24.148;2023-05-21T05:58:11;10.48;;;4.28;;
48596;SDS011;34382;43.160;24.148;2023-05-21T05:59:43;8.60;;;4.35;;
48596;SDS011;34382;43.160;24.148;2023-05-21T06:01:16;8.68;;;4.45;;
48596;SDS011;34382;43.160;24.148;2023-05-21T06:02:48;9.00;;;5.20;;
48596;SDS011;34382;43.160;24.148;2023-05-21T06:04:20;9.27;;;4.95;;
48596;SDS011;34382;43.160;24.148;2023-05-21T06:05:53;9.65;;;4.95;;
48596;SDS011;34382;43.160;24.148;2023-05-21T06:07:25;10.45;;;5.30;;
48596;SDS011;34382;43.160;24.148;2023-05-21T06:09:00;10.27;;;5.40;;
48596;SDS011;34382;43.160;24.148;2023-05-21T06:10:32;10.35;;;5.47;;
48596;SDS011;34382;43.160;24.148;2023-05-21T06:12:05;10.45;;;5.38;;
48596;SDS011;34382;43.160;24.148;2023-05-21T06:13:38;10.07;;;5.20;;
48596;SDS011;34382;43.160;24.148;2023-05-21T06:15:10;9.68;;;5.32;;
48596;SDS011;34382;43.160;24.148;2023-05-21T06:16:45;10.32;;;5.10;;
48596;SDS011;34382;43.160;24.148;2023-05-21T06:18:17;11.85;;;5.32;;
48596;SDS011;34382;43.160;24.148;2023-05-21T06:19:49;9.55;;;5.93;;
48596;SDS011;34382;43.160;24.148;2023-05-21T06:21:21;10.70;;;5.68;;
48596;SDS011;34382;43.160;24.148;2023-05-21T06:22:54;9.70;;;5.50;;
48596;SDS011;34382;43.160;24.148;2023-05-21T06:24:26;10.85;;;5.60;;
48596;SDS011;34382;43.160;24.148;2023-05-21T06:25:58;10.98;;;6.13;;
48596;SDS011;34382;43.160;24.148;2023-05-21T06:27:30;10.73;;;5.55;;
48596;SDS011;34382;43.160;24.148;2023-05-21T06:29:02;12.45;;;5.45;;
48596;SDS011;34382;43.160;24.148;2023-05-21T06:30:35;10.27;;;5.40;;
48596;SDS011;34382;43.160;24.148;2023-05-21T06:32:07;10.25;;;5.05;;
48596;SDS011;34382;43.160;24.148;2023-05-21T06:33:39;9.38;;;5.78;;
48596;SDS011;34382;43.160;24.148;2023-05-21T06:35:12;11.70;;;5.70;;
48596;SDS011;34382;43.160;24.148;2023-05-21T06:36:44;11.35;;;5.82;;
48596;SDS011;34382;43.160;24.148;2023-05-21T06:38:16;11.68;;;6.07;;
48596;SDS011;34382;43.160;24.148;2023-05-21T06:39:48;10.85;;;5.97;;
48596;SDS011;34382;43.160;24.148;2023-05-21T06:41:21;10.13;;;6.10;;
48596;SDS011;34382;43.160;24.148;2023-05-21T06:42:53;12.43;;;6.33;;
48596;SDS011;34382;43.160;24.148;2023-05-21T06:44:27;11.68;;;6.10;;
48596;SDS011;34382;43.160;24.148;2023-05-21T06:45:59;11.05;;;5.75;;
48596;SDS011;34382;43.160;24.148;2023-05-21T06:47:32;12.20;;;6.18;;
48596;SDS011;34382;43.160;24.148;2023-05-21T06:49:04;10.52;;;6.57;;
48596;SDS011;34382;43.160;24.148;2023-05-21T06:52:09;12.27;;;7.40;;
48596;SDS011;34382;43.160;24.148;2023-05-21T06:53:42;10.98;;;7.55;;
48596;SDS011;34382;43.160;24.148;2023-05-21T06:55:14;11.27;;;6.75;;
48596;SDS011;34382;43.160;24.148;2023-05-21T06:56:46;13.55;;;7.25;;
48596;SDS011;34382;43.160;24.148;2023-05-21T06:58:18;12.55;;;7.35;;
48596;SDS011;34382;43.160;24.148;2023-05-21T07:01:24;11.32;;;6.88;;
48596;SDS011;34382;43.160;24.148;2023-05-21T07:02:56;10.50;;;6.45;;
48596;SDS011;34382;43.160;24.148;2023-05-21T07:04:29;11.38;;;7.30;;
48596;SDS011;34382;43.160;24.148;2023-05-21T07:06:01;11.93;;;6.93;;
48596;SDS011;34382;43.160;24.148;2023-05-21T07:07:33;11.52;;;6.97;;
48596;SDS011;34382;43.160;24.148;2023-05-21T07:09:06;13.00;;;7.20;;
48596;SDS011;34382;43.160;24.148;2023-05-21T07:10:39;12.88;;;8.02;;
48596;SDS011;34382;43.160;24.148;2023-05-21T07:13:44;13.68;;;8.27;;
48596;SDS011;34382;43.160;24.148;2023-05-21T07:15:17;12.90;;;8.30;;
48596;SDS011;34382;43.160;24.148;2023-05-21T07:16:49;12.77;;;9.30;;
48596;SDS011;34382;43.160;24.148;2023-05-21T07:19:53;13.77;;;7.70;;
48596;SDS011;34382;43.160;24.148;2023-05-21T07:21:25;12.13;;;7.47;;
48596;SDS011;34382;43.160;24.148;2023-05-21T07:22:58;11.65;;;7.15;;
48596;SDS011;34382;43.160;24.148;2023-05-21T07:24:30;11.65;;;7.05;;
48596;SDS011;34382;43.160;24.148;2023-05-21T07:26:02;12.40;;;7.55;;
48596;SDS011;34382;43.160;24.148;2023-05-21T07:27:34;12.13;;;7.88;;
48596;SDS011;34382;43.160;24.148;2023-05-21T07:29:06;12.55;;;8.45;;
48596;SDS011;34382;43.160;24.148;2023-05-21T07:30:39;13.43;;;7.30;;
48596;SDS011;34382;43.160;24.148;2023-05-21T07:32:11;14.38;;;8.65;;
48596;SDS011;34382;43.160;24.148;2023-05-21T07:33:43;12.85;;;7.75;;
48596;SDS011;34382;43.160;24.148;2023-05-21T07:35:15;15.40;;;8.43;;
48596;SDS011;34382;43.160;24.148;2023-05-21T07:36:48;11.98;;;6.80;;
48596;SDS011;34382;43.160;24.148;2023-05-21T07:38:20;14.18;;;7.40;;
48596;SDS011;34382;43.160;24.148;2023-05-21T07:39:55;12.90;;;7.72;;
48596;SDS011;34382;43.160;24.148;2023-05-21T07:41:29;12.02;;;7.47;;
48596;SDS011;34382;43.160;24.148;2023-05-21T07:43:01;11.63;;;6.80;;
48596;SDS011;34382;43.160;24.148;2023-05-21T07:44:33;12.15;;;7.07;;
48596;SDS011;34382;43.160;24.148;2023-05-21T07:46:06;13.10;;;6.77;;
48596;SDS011;34382;43.160;24.148;2023-05-21T07:47:38;14.00;;;7.65;;
48596;SDS011;34382;43.160;24.148;2023-05-21T07:49:10;12.52;;;7.40;;
48596;SDS011;34382;43.160;24.148;2023-05-21T07:50:47;11.65;;;7.20;;
48596;SDS011;34382;43.160;24.148;2023-05-21T07:52:20;12.45;;;6.65;;
48596;SDS011;34382;43.160;24.148;2023-05-21T07:53:52;16.05;;;7.47;;
48596;SDS011;34382;43.160;24.148;2023-05-21T07:55:25;11.13;;;6.70;;
48596;SDS011;34382;43.160;24.148;2023-05-21T07:56:58;13.68;;;7.82;;
48596;SDS011;34382;43.160;24.148;2023-05-21T07:58:30;13.63;;;7.93;;
48596;SDS011;34382;43.160;24.148;2023-05-21T08:00:03;12.13;;;7.05;;
48596;SDS011;34382;43.160;24.148;2023-05-21T08:01:39;12.05;;;7.35;;
48596;SDS011;34382;43.160;24.148;2023-05-21T08:03:15;13.48;;;7.22;;
48596;SDS011;34382;43.160;24.148;2023-05-21T08:04:47;12.98;;;7.40;;
48596;SDS011;34382;43.160;24.148;2023-05-21T08:06:20;12.17;;;7.13;;
48596;SDS011;34382;43.160;24.148;2023-05-21T08:07:55;12.27;;;7.38;;
48596;SDS011;34382;43.160;24.148;2023-05-21T08:09:27;12.50;;;7.57;;
48596;SDS011;34382;43.160;24.148;2023-05-21T08:11:03;10.65;;;6.97;;
48596;SDS011;34382;43.160;24.148;2023-05-21T08:12:35;12.20;;;6.97;;
48596;SDS011;34382;43.160;24.148;2023-05-21T08:14:07;11.48;;;7.13;;
48596;SDS011;34382;43.160;24.148;2023-05-21T08:15:40;11.77;;;6.97;;
48596;SDS011;34382;43.160;24.148;2023-05-21T08:17:12;12.73;;;7.28;;
48596;SDS011;34382;43.160;24.148;2023-05-21T08:18:45;10.95;;;7.30;;
48596;SDS011;34382;43.160;24.148;2023-05-21T08:20:17;10.87;;;6.57;;
48596;SDS011;34382;43.160;24.148;2023-05-21T08:21:51;13.27;;;7.40;;
48596;SDS011;34382;43.160;24.148;2023-05-21T08:23:23;12.40;;;7.20;;
48596;SDS011;34382;43.160;24.148;2023-05-21T08:24:55;12.87;;;7.67;;
48596;SDS011;34382;43.160;24.148;2023-05-21T08:26:28;13.75;;;7.80;;
48596;SDS011;34382;43.160;24.148;2023-05-21T08:28:00;12.98;;;7.53;;
48596;SDS011;34382;43.160;24.148;2023-05-21T08:29:32;12.80;;;7.35;;
48596;SDS011;34382;43.160;24.148;2023-05-21T08:31:05;11.68;;;7.30;;
48596;SDS011;34382;43.160;24.148;2023-05-21T08:32:37;10.57;;;7.30;;
48596;SDS011;34382;43.160;24.148;2023-05-21T08:34:09;10.85;;;7.15;;
48596;SDS011;34382;43.160;24.148;2023-05-21T08:35:41;11.73;;;7.50;;
48596;SDS011;34382;43.160;24.148;2023-05-21T08:37:14;11.82;;;7.07;;
48596;SDS011;34382;43.160;24.148;2023-05-21T08:38:46;12.32;;;7.70;;
48596;SDS011;34382;43.160;24.148;2023-05-21T08:40:18;13.43;;;6.43;;
48596;SDS011;34382;43.160;24.148;2023-05-21T08:41:51;12.45;;;6.75;;
48596;SDS011;34382;43.160;24.148;2023-05-21T08:43:28;10.88;;;6.93;;
48596;SDS011;34382;43.160;24.148;2023-05-21T08:45:00;12.18;;;7.50;;
48596;SDS011;34382;43.160;24.148;2023-05-21T08:46:38;10.90;;;6.75;;
48596;SDS011;34382;43.160;24.148;2023-05-21T08:48:11;11.68;;;7.45;;
48596;SDS011;34382;43.160;24.148;2023-05-21T08:49:48;13.55;;;7.40;;
48596;SDS011;34382;43.160;24.148;2023-05-21T08:51:21;11.23;;;7.30;;
48596;SDS011;34382;43.160;24.148;2023-05-21T08:52:53;10.02;;;6.28;;
48596;SDS011;34382;43.160;24.148;2023-05-21T08:54:26;13.98;;;6.53;;
48596;SDS011;34382;43.160;24.148;2023-05-21T08:55:58;13.93;;;7.38;;
48596;SDS011;34382;43.160;24.148;2023-05-21T08:57:31;12.02;;;6.53;;
48596;SDS011;34382;43.160;24.148;2023-05-21T08:59:03;11.80;;;7.22;;
48596;SDS011;34382;43.160;24.148;2023-05-21T09:00:35;11.25;;;6.88;;
48596;SDS011;34382;43.160;24.148;2023-05-21T09:02:11;15.23;;;7.75;;
48596;SDS011;34382;43.160;24.148;2023-05-21T09:03:44;12.10;;;7.00;;
48596;SDS011;34382;43.160;24.148;2023-05-21T09:05:16;11.50;;;6.95;;
48596;SDS011;34382;43.160;24.148;2023-05-21T09:06:49;11.05;;;7.20;;
48596;SDS011;34382;43.160;24.148;2023-05-21T09:10:05;10.40;;;6.47;;
48596;SDS011;34382;43.160;24.148;2023-05-21T09:11:41;11.63;;;6.80;;
48596;SDS011;34382;43.160;24.148;2023-05-21T09:13:14;12.32;;;6.68;;
48596;SDS011;34382;43.160;24.148;2023-05-21T09:14:48;11.75;;;6.50;;
48596;SDS011;34382;43.160;24.148;2023-05-21T09:16:20;12.95;;;6.47;;
48596;SDS011;34382;43.160;24.148;2023-05-21T09:17:52;11.43;;;7.07;;
48596;SDS011;34382;43.160;24.148;2023-05-21T09:19:25;11.75;;;7.45;;
48596;SDS011;34382;43.160;24.148;2023-05-21T09:20:57;10.65;;;6.97;;
48596;SDS011;34382;43.160;24.148;2023-05-21T09:22:30;10.85;;;6.05;;
48596;SDS011;34382;43.160;24.148;2023-05-21T09:24:02;13.07;;;6.38;;
48596;SDS011;34382;43.160;24.148;2023-05-21T09:25:35;10.83;;;6.10;;
48596;SDS011;34382;43.160;24.148;2023-05-21T09:27:09;10.93;;;6.05;;
48596;SDS011;34382;43.160;24.148;2023-05-21T09:28:41;11.80;;;6.77;;
48596;SDS011;34382;43.160;24.148;2023-05-21T09:30:14;11.65;;;6.47;;